sensor_id;sensor_type;location;lat;lon;timestamp;P1;durP1;ratioP1;P2;durP2;ratioP2
58878;SDS011;44660;42.664;23.266;2023-04-07T00:00:06;12.80;;;7.75;;
58878;SDS011;44660;42.664;23.266;2023-04-07T00:02:32;13.40;;;7.68;;
58878;SDS011;44660;42.664;23.266;2023-04-07T00:04:57;18.02;;;8.43;;
58878;SDS011;44660;42.664;23.266;2023-04-07T00:07:23;13.35;;;7.80;;
58878;SDS011;44660;42.664;23.266;2023-04-07T00:09:49;11.65;;;7.90;;
58878;SDS011;44660;42.664;23.266;2023-04-07T00:12:14;16.88;;;7.70;;
58878;SDS011;44660;42.664;23.266;2023-04-07T00:14:40;13.52;;;7.85;;
58878;SDS011;44660;42.664;23.266;2023-04-07T00:17:05;14.40;;;7.72;;
58878;SDS011;44660;42.664;23.266;2023-04-07T00:19:31;13.88;;;7.60;;
58878;SDS011;44660;42.664;23.266;2023-04-07T00:21:57;15.18;;;7.72;;
58878;SDS011;44660;42.664;23.266;2023-04-07T00:24:23;14.75;;;8.75;;
58878;SDS011;44660;42.664;23.266;2023-04-07T00:26:48;11.88;;;7.60;;
58878;SDS011;44660;42.664;23.266;2023-04-07T00:29:13;10.63;;;7.38;;
58878;SDS011;44660;42.664;23.266;2023-04-07T00:31:39;13.93;;;7.80;;
58878;SDS011;44660;42.664;23.266;2023-04-07T00:34:05;13.93;;;7.72;;
58878;SDS011;44660;42.664;23.266;2023-04-07T00:36:30;13.73;;;7.88;;
58878;SDS011;44660;42.664;23.266;2023-04-07T00:38:56;13.27;;;7.97;;
58878;SDS011;44660;42.664;23.266;2023-04-07T00:41:21;15.38;;;7.93;;
58878;SDS011;44660;42.664;23.266;2023-04-07T00:43:48;17.20;;;8.75;;
58878;SDS011;44660;42.664;23.266;2023-04-07T00:46:14;13.50;;;7.68;;
58878;SDS011;44660;42.664;23.266;2023-04-07T00:48:40;13.43;;;7.93;;
58878;SDS011;44660;42.664;23.266;2023-04-07T00:51:05;12.98;;;7.90;;
58878;SDS011;44660;42.664;23.266;2023-04-07T00:53:31;13.65;;;7.75;;
58878;SDS011;44660;42.664;23.266;2023-04-07T00:55:56;23.08;;;8.48;;
58878;SDS011;44660;42.664;23.266;2023-04-07T00:58:22;13.15;;;7.63;;
58878;SDS011;44660;42.664;23.266;2023-04-07T01:00:48;13.40;;;7.70;;
58878;SDS011;44660;42.664;23.266;2023-04-07T01:03:20;14.65;;;8.23;;
58878;SDS011;44660;42.664;23.266;2023-04-07T01:05:54;11.95;;;8.00;;
58878;SDS011;44660;42.664;23.266;2023-04-07T01:08:28;14.27;;;7.95;;
58878;SDS011;44660;42.664;23.266;2023-04-07T01:11:02;14.65;;;7.95;;
58878;SDS011;44660;42.664;23.266;2023-04-07T01:13:36;10.75;;;7.18;;
58878;SDS011;44660;42.664;23.266;2023-04-07T01:16:08;10.98;;;7.45;;
58878;SDS011;44660;42.664;23.266;2023-04-07T01:18:37;13.50;;;7.28;;
58878;SDS011;44660;42.664;23.266;2023-04-07T01:21:13;13.75;;;7.57;;
58878;SDS011;44660;42.664;23.266;2023-04-07T01:26:25;13.13;;;7.70;;
58878;SDS011;44660;42.664;23.266;2023-04-07T01:31:55;12.88;;;7.63;;
58878;SDS011;44660;42.664;23.266;2023-04-07T01:34:22;24.35;;;12.88;;
58878;SDS011;44660;42.664;23.266;2023-04-07T01:36:50;28.38;;;15.10;;
58878;SDS011;44660;42.664;23.266;2023-04-07T01:39:17;15.48;;;8.68;;
58878;SDS011;44660;42.664;23.266;2023-04-07T01:41:44;13.50;;;7.13;;
58878;SDS011;44660;42.664;23.266;2023-04-07T01:44:10;11.23;;;6.70;;
58878;SDS011;44660;42.664;23.266;2023-04-07T01:46:37;10.95;;;6.63;;
58878;SDS011;44660;42.664;23.266;2023-04-07T01:49:02;12.93;;;6.90;;
58878;SDS011;44660;42.664;23.266;2023-04-07T01:51:29;9.20;;;6.18;;
58878;SDS011;44660;42.664;23.266;2023-04-07T01:53:57;11.23;;;6.25;;
58878;SDS011;44660;42.664;23.266;2023-04-07T01:56:23;10.15;;;6.70;;
58878;SDS011;44660;42.664;23.266;2023-04-07T01:58:49;11.60;;;6.45;;
58878;SDS011;44660;42.664;23.266;2023-04-07T02:01:14;11.57;;;6.57;;
58878;SDS011;44660;42.664;23.266;2023-04-07T02:04:01;13.90;;;7.80;;
58878;SDS011;44660;42.664;23.266;2023-04-07T02:06:43;15.82;;;7.85;;
58878;SDS011;44660;42.664;23.266;2023-04-07T02:09:15;12.15;;;6.68;;
58878;SDS011;44660;42.664;23.266;2023-04-07T02:11:43;13.05;;;6.72;;
58878;SDS011;44660;42.664;23.266;2023-04-07T02:14:10;9.75;;;6.57;;
58878;SDS011;44660;42.664;23.266;2023-04-07T02:16:36;13.13;;;6.57;;
58878;SDS011;44660;42.664;23.266;2023-04-07T02:19:03;10.25;;;6.60;;
58878;SDS011;44660;42.664;23.266;2023-04-07T02:21:29;10.45;;;6.05;;
58878;SDS011;44660;42.664;23.266;2023-04-07T02:23:59;9.90;;;6.07;;
58878;SDS011;44660;42.664;23.266;2023-04-07T02:26:25;9.32;;;5.80;;
58878;SDS011;44660;42.664;23.266;2023-04-07T02:28:51;9.70;;;6.07;;
58878;SDS011;44660;42.664;23.266;2023-04-07T02:31:16;9.82;;;6.30;;
58878;SDS011;44660;42.664;23.266;2023-04-07T02:33:42;11.52;;;6.60;;
58878;SDS011;44660;42.664;23.266;2023-04-07T02:36:07;11.57;;;6.43;;
58878;SDS011;44660;42.664;23.266;2023-04-07T02:38:33;9.73;;;6.30;;
58878;SDS011;44660;42.664;23.266;2023-04-07T02:40:58;12.57;;;6.47;;
58878;SDS011;44660;42.664;23.266;2023-04-07T02:43:24;11.25;;;7.15;;
58878;SDS011;44660;42.664;23.266;2023-04-07T02:45:50;11.90;;;7.05;;
58878;SDS011;44660;42.664;23.266;2023-04-07T02:48:16;14.60;;;7.05;;
58878;SDS011;44660;42.664;23.266;2023-04-07T02:50:41;11.00;;;6.93;;
58878;SDS011;44660;42.664;23.266;2023-04-07T02:53:07;12.93;;;6.25;;
58878;SDS011;44660;42.664;23.266;2023-04-07T02:55:32;12.00;;;6.53;;
58878;SDS011;44660;42.664;23.266;2023-04-07T02:57:58;11.52;;;6.90;;
58878;SDS011;44660;42.664;23.266;2023-04-07T03:00:24;13.50;;;6.70;;
58878;SDS011;44660;42.664;23.266;2023-04-07T03:02:50;10.38;;;6.10;;
58878;SDS011;44660;42.664;23.266;2023-04-07T03:05:15;12.43;;;6.22;;
58878;SDS011;44660;42.664;23.266;2023-04-07T03:07:41;11.27;;;6.65;;
58878;SDS011;44660;42.664;23.266;2023-04-07T03:10:06;9.43;;;6.32;;
58878;SDS011;44660;42.664;23.266;2023-04-07T03:12:32;12.35;;;7.05;;
58878;SDS011;44660;42.664;23.266;2023-04-07T03:14:57;11.07;;;7.07;;
58878;SDS011;44660;42.664;23.266;2023-04-07T03:17:23;13.57;;;6.85;;
58878;SDS011;44660;42.664;23.266;2023-04-07T03:19:48;10.55;;;6.50;;
58878;SDS011;44660;42.664;23.266;2023-04-07T03:22:15;9.45;;;6.65;;
58878;SDS011;44660;42.664;23.266;2023-04-07T03:24:41;11.57;;;6.53;;
58878;SDS011;44660;42.664;23.266;2023-04-07T03:27:06;11.27;;;6.70;;
58878;SDS011;44660;42.664;23.266;2023-04-07T03:29:32;11.13;;;5.93;;
58878;SDS011;44660;42.664;23.266;2023-04-07T03:31:58;10.73;;;6.45;;
58878;SDS011;44660;42.664;23.266;2023-04-07T03:34:23;8.75;;;5.88;;
58878;SDS011;44660;42.664;23.266;2023-04-07T03:36:49;9.30;;;6.40;;
58878;SDS011;44660;42.664;23.266;2023-04-07T03:39:14;10.80;;;6.22;;
58878;SDS011;44660;42.664;23.266;2023-04-07T03:41:39;11.13;;;6.80;;
58878;SDS011;44660;42.664;23.266;2023-04-07T03:44:05;14.35;;;6.32;;
58878;SDS011;44660;42.664;23.266;2023-04-07T03:46:31;14.73;;;6.68;;
58878;SDS011;44660;42.664;23.266;2023-04-07T03:48:56;14.30;;;6.90;;
58878;SDS011;44660;42.664;23.266;2023-04-07T03:51:21;12.30;;;6.15;;
58878;SDS011;44660;42.664;23.266;2023-04-07T03:53:47;10.02;;;6.07;;
58878;SDS011;44660;42.664;23.266;2023-04-07T03:56:12;9.80;;;6.32;;
58878;SDS011;44660;42.664;23.266;2023-04-07T03:58:38;11.57;;;5.75;;
58878;SDS011;44660;42.664;23.266;2023-04-07T04:01:06;14.18;;;6.72;;
58878;SDS011;44660;42.664;23.266;2023-04-07T04:03:32;10.48;;;6.47;;
58878;SDS011;44660;42.664;23.266;2023-04-07T04:05:57;11.00;;;6.32;;
58878;SDS011;44660;42.664;23.266;2023-04-07T04:08:23;9.27;;;6.22;;
58878;SDS011;44660;42.664;23.266;2023-04-07T04:10:48;8.88;;;5.30;;
58878;SDS011;44660;42.664;23.266;2023-04-07T04:13:14;10.43;;;6.00;;
58878;SDS011;44660;42.664;23.266;2023-04-07T04:15:40;12.45;;;6.90;;
58878;SDS011;44660;42.664;23.266;2023-04-07T04:18:06;12.30;;;6.40;;
58878;SDS011;44660;42.664;23.266;2023-04-07T04:20:32;11.82;;;6.47;;
58878;SDS011;44660;42.664;23.266;2023-04-07T04:22:58;10.88;;;6.55;;
58878;SDS011;44660;42.664;23.266;2023-04-07T04:25:23;10.75;;;6.38;;
58878;SDS011;44660;42.664;23.266;2023-04-07T04:27:49;9.38;;;5.95;;
58878;SDS011;44660;42.664;23.266;2023-04-07T04:30:15;9.50;;;5.88;;
58878;SDS011;44660;42.664;23.266;2023-04-07T04:32:40;12.30;;;6.50;;
58878;SDS011;44660;42.664;23.266;2023-04-07T04:35:06;9.95;;;6.28;;
58878;SDS011;44660;42.664;23.266;2023-04-07T04:37:31;10.15;;;5.95;;
58878;SDS011;44660;42.664;23.266;2023-04-07T04:39:57;12.07;;;6.38;;
58878;SDS011;44660;42.664;23.266;2023-04-07T04:42:22;8.95;;;5.95;;
58878;SDS011;44660;42.664;23.266;2023-04-07T04:44:48;9.68;;;6.05;;
58878;SDS011;44660;42.664;23.266;2023-04-07T04:47:13;9.32;;;5.78;;
58878;SDS011;44660;42.664;23.266;2023-04-07T04:49:39;11.10;;;5.78;;
58878;SDS011;44660;42.664;23.266;2023-04-07T04:52:05;12.32;;;6.40;;
58878;SDS011;44660;42.664;23.266;2023-04-07T04:54:31;12.52;;;6.28;;
58878;SDS011;44660;42.664;23.266;2023-04-07T04:56:57;13.40;;;6.22;;
58878;SDS011;44660;42.664;23.266;2023-04-07T04:59:22;13.68;;;7.43;;
58878;SDS011;44660;42.664;23.266;2023-04-07T05:01:48;12.15;;;6.38;;
58878;SDS011;44660;42.664;23.266;2023-04-07T05:04:13;10.52;;;6.05;;
58878;SDS011;44660;42.664;23.266;2023-04-07T05:06:39;13.18;;;6.70;;
58878;SDS011;44660;42.664;23.266;2023-04-07T05:09:04;21.35;;;11.80;;
58878;SDS011;44660;42.664;23.266;2023-04-07T05:11:30;13.52;;;8.15;;
58878;SDS011;44660;42.664;23.266;2023-04-07T05:13:55;18.50;;;11.10;;
58878;SDS011;44660;42.664;23.266;2023-04-07T05:16:21;9.40;;;5.88;;
58878;SDS011;44660;42.664;23.266;2023-04-07T05:18:46;10.65;;;5.30;;
58878;SDS011;44660;42.664;23.266;2023-04-07T05:21:11;9.98;;;6.18;;
58878;SDS011;44660;42.664;23.266;2023-04-07T05:23:37;9.23;;;5.75;;
58878;SDS011;44660;42.664;23.266;2023-04-07T05:26:02;8.55;;;5.50;;
58878;SDS011;44660;42.664;23.266;2023-04-07T05:28:28;10.60;;;5.80;;
58878;SDS011;44660;42.664;23.266;2023-04-07T05:30:53;9.35;;;4.97;;
58878;SDS011;44660;42.664;23.266;2023-04-07T05:33:19;11.43;;;6.22;;
58878;SDS011;44660;42.664;23.266;2023-04-07T05:35:45;7.90;;;5.40;;
58878;SDS011;44660;42.664;23.266;2023-04-07T05:38:10;10.95;;;5.00;;
58878;SDS011;44660;42.664;23.266;2023-04-07T05:40:36;10.07;;;5.50;;
58878;SDS011;44660;42.664;23.266;2023-04-07T05:43:02;12.40;;;5.53;;
58878;SDS011;44660;42.664;23.266;2023-04-07T05:45:27;10.40;;;5.65;;
58878;SDS011;44660;42.664;23.266;2023-04-07T05:47:53;8.75;;;5.50;;
58878;SDS011;44660;42.664;23.266;2023-04-07T05:50:18;9.13;;;6.00;;
58878;SDS011;44660;42.664;23.266;2023-04-07T05:52:44;9.55;;;5.53;;
58878;SDS011;44660;42.664;23.266;2023-04-07T05:55:10;11.27;;;6.18;;
58878;SDS011;44660;42.664;23.266;2023-04-07T05:57:35;12.68;;;5.90;;
58878;SDS011;44660;42.664;23.266;2023-04-07T06:00:01;10.38;;;5.55;;
58878;SDS011;44660;42.664;23.266;2023-04-07T06:02:26;9.45;;;5.45;;
58878;SDS011;44660;42.664;23.266;2023-04-07T06:04:52;8.07;;;5.15;;
58878;SDS011;44660;42.664;23.266;2023-04-07T06:07:17;10.25;;;6.15;;
58878;SDS011;44660;42.664;23.266;2023-04-07T06:09:43;13.25;;;7.18;;
58878;SDS011;44660;42.664;23.266;2023-04-07T06:12:08;12.85;;;6.70;;
58878;SDS011;44660;42.664;23.266;2023-04-07T06:14:36;13.07;;;5.47;;
58878;SDS011;44660;42.664;23.266;2023-04-07T06:17:02;12.52;;;5.63;;
58878;SDS011;44660;42.664;23.266;2023-04-07T06:19:27;9.15;;;5.63;;
58878;SDS011;44660;42.664;23.266;2023-04-07T06:21:53;9.20;;;6.03;;
58878;SDS011;44660;42.664;23.266;2023-04-07T06:24:18;11.32;;;6.13;;
58878;SDS011;44660;42.664;23.266;2023-04-07T06:26:46;11.38;;;5.57;;
58878;SDS011;44660;42.664;23.266;2023-04-07T06:29:12;10.07;;;5.20;;
58878;SDS011;44660;42.664;23.266;2023-04-07T06:31:38;7.28;;;5.10;;
58878;SDS011;44660;42.664;23.266;2023-04-07T06:34:03;9.02;;;5.50;;
58878;SDS011;44660;42.664;23.266;2023-04-07T06:36:29;9.93;;;5.20;;
58878;SDS011;44660;42.664;23.266;2023-04-07T06:38:54;9.07;;;4.82;;
58878;SDS011;44660;42.664;23.266;2023-04-07T06:41:20;9.80;;;4.63;;
58878;SDS011;44660;42.664;23.266;2023-04-07T06:43:46;13.07;;;7.22;;
58878;SDS011;44660;42.664;23.266;2023-04-07T06:46:13;9.57;;;5.00;;
58878;SDS011;44660;42.664;23.266;2023-04-07T06:48:38;9.15;;;5.70;;
58878;SDS011;44660;42.664;23.266;2023-04-07T06:51:04;9.27;;;5.60;;
58878;SDS011;44660;42.664;23.266;2023-04-07T06:53:29;7.68;;;5.10;;
58878;SDS011;44660;42.664;23.266;2023-04-07T06:56:02;11.57;;;4.93;;
58878;SDS011;44660;42.664;23.266;2023-04-07T06:58:28;10.65;;;5.95;;
58878;SDS011;44660;42.664;23.266;2023-04-07T07:00:53;9.10;;;4.93;;
58878;SDS011;44660;42.664;23.266;2023-04-07T07:03:19;10.30;;;5.35;;
58878;SDS011;44660;42.664;23.266;2023-04-07T07:05:45;9.73;;;5.88;;
58878;SDS011;44660;42.664;23.266;2023-04-07T07:08:10;9.82;;;5.90;;
58878;SDS011;44660;42.664;23.266;2023-04-07T07:10:36;9.32;;;5.35;;
58878;SDS011;44660;42.664;23.266;2023-04-07T07:13:01;13.27;;;5.85;;
58878;SDS011;44660;42.664;23.266;2023-04-07T07:15:27;6.80;;;4.85;;
58878;SDS011;44660;42.664;23.266;2023-04-07T07:17:52;9.13;;;5.55;;
58878;SDS011;44660;42.664;23.266;2023-04-07T07:20:18;8.77;;;4.90;;
58878;SDS011;44660;42.664;23.266;2023-04-07T07:22:43;10.55;;;4.93;;
58878;SDS011;44660;42.664;23.266;2023-04-07T07:25:09;10.25;;;5.68;;
58878;SDS011;44660;42.664;23.266;2023-04-07T07:27:35;11.10;;;5.30;;
58878;SDS011;44660;42.664;23.266;2023-04-07T07:30:00;8.98;;;5.30;;
58878;SDS011;44660;42.664;23.266;2023-04-07T07:32:26;7.47;;;5.35;;
58878;SDS011;44660;42.664;23.266;2023-04-07T07:34:51;10.05;;;5.63;;
58878;SDS011;44660;42.664;23.266;2023-04-07T07:37:17;9.48;;;5.50;;
58878;SDS011;44660;42.664;23.266;2023-04-07T07:39:42;10.75;;;5.93;;
58878;SDS011;44660;42.664;23.266;2023-04-07T07:42:08;8.90;;;5.80;;
58878;SDS011;44660;42.664;23.266;2023-04-07T07:44:33;10.00;;;5.35;;
58878;SDS011;44660;42.664;23.266;2023-04-07T07:46:59;9.90;;;5.32;;
58878;SDS011;44660;42.664;23.266;2023-04-07T07:49:25;8.55;;;5.63;;
58878;SDS011;44660;42.664;23.266;2023-04-07T07:51:51;8.32;;;5.00;;
58878;SDS011;44660;42.664;23.266;2023-04-07T07:54:17;10.88;;;5.35;;
58878;SDS011;44660;42.664;23.266;2023-04-07T07:56:42;9.45;;;5.32;;
58878;SDS011;44660;42.664;23.266;2023-04-07T07:59:08;10.40;;;5.07;;
58878;SDS011;44660;42.664;23.266;2023-04-07T08:01:33;13.68;;;5.97;;
58878;SDS011;44660;42.664;23.266;2023-04-07T08:03:58;9.63;;;5.88;;
58878;SDS011;44660;42.664;23.266;2023-04-07T08:06:24;10.00;;;5.72;;
58878;SDS011;44660;42.664;23.266;2023-04-07T08:08:51;13.43;;;5.47;;
58878;SDS011;44660;42.664;23.266;2023-04-07T08:11:16;9.63;;;4.82;;
58878;SDS011;44660;42.664;23.266;2023-04-07T08:13:41;7.03;;;4.78;;
58878;SDS011;44660;42.664;23.266;2023-04-07T08:16:09;11.00;;;5.97;;
58878;SDS011;44660;42.664;23.266;2023-04-07T08:18:35;9.25;;;5.63;;
58878;SDS011;44660;42.664;23.266;2023-04-07T08:21:02;14.45;;;5.38;;
58878;SDS011;44660;42.664;23.266;2023-04-07T08:23:28;14.57;;;6.15;;
58878;SDS011;44660;42.664;23.266;2023-04-07T08:25:54;7.20;;;4.82;;
58878;SDS011;44660;42.664;23.266;2023-04-07T08:28:20;11.35;;;5.60;;
58878;SDS011;44660;42.664;23.266;2023-04-07T08:30:47;8.52;;;5.40;;
58878;SDS011;44660;42.664;23.266;2023-04-07T08:33:12;9.15;;;5.50;;
58878;SDS011;44660;42.664;23.266;2023-04-07T08:35:38;10.27;;;6.20;;
58878;SDS011;44660;42.664;23.266;2023-04-07T08:38:04;8.18;;;5.35;;
58878;SDS011;44660;42.664;23.266;2023-04-07T08:40:30;13.85;;;5.13;;
58878;SDS011;44660;42.664;23.266;2023-04-07T08:42:56;9.73;;;5.68;;
58878;SDS011;44660;42.664;23.266;2023-04-07T08:45:24;8.63;;;4.75;;
58878;SDS011;44660;42.664;23.266;2023-04-07T08:47:51;7.05;;;4.50;;
58878;SDS011;44660;42.664;23.266;2023-04-07T08:50:20;10.82;;;5.22;;
58878;SDS011;44660;42.664;23.266;2023-04-07T08:52:51;6.70;;;4.63;;
58878;SDS011;44660;42.664;23.266;2023-04-07T08:55:18;7.47;;;4.63;;
58878;SDS011;44660;42.664;23.266;2023-04-07T08:57:44;6.80;;;4.82;;
58878;SDS011;44660;42.664;23.266;2023-04-07T09:00:10;9.27;;;5.43;;
58878;SDS011;44660;42.664;23.266;2023-04-07T09:02:40;6.25;;;4.82;;
58878;SDS011;44660;42.664;23.266;2023-04-07T09:05:09;6.43;;;4.65;;
58878;SDS011;44660;42.664;23.266;2023-04-07T09:07:37;9.90;;;5.05;;
58878;SDS011;44660;42.664;23.266;2023-04-07T09:10:04;8.50;;;5.03;;
58878;SDS011;44660;42.664;23.266;2023-04-07T09:12:32;8.77;;;5.18;;
58878;SDS011;44660;42.664;23.266;2023-04-07T09:14:58;8.73;;;5.05;;
58878;SDS011;44660;42.664;23.266;2023-04-07T09:17:24;9.60;;;5.07;;
58878;SDS011;44660;42.664;23.266;2023-04-07T09:19:57;7.75;;;5.03;;
58878;SDS011;44660;42.664;23.266;2023-04-07T09:22:43;7.18;;;4.82;;
58878;SDS011;44660;42.664;23.266;2023-04-07T09:25:21;7.35;;;5.00;;
58878;SDS011;44660;42.664;23.266;2023-04-07T09:30:29;11.65;;;5.75;;
58878;SDS011;44660;42.664;23.266;2023-04-07T09:32:56;7.38;;;5.63;;
58878;SDS011;44660;42.664;23.266;2023-04-07T09:35:22;8.77;;;5.80;;
58878;SDS011;44660;42.664;23.266;2023-04-07T09:40:30;8.30;;;5.82;;
58878;SDS011;44660;42.664;23.266;2023-04-07T09:42:56;7.75;;;6.18;;
58878;SDS011;44660;42.664;23.266;2023-04-07T09:45:25;7.85;;;5.28;;
58878;SDS011;44660;42.664;23.266;2023-04-07T09:47:52;11.32;;;6.22;;
58878;SDS011;44660;42.664;23.266;2023-04-07T09:50:33;9.27;;;6.00;;
58878;SDS011;44660;42.664;23.266;2023-04-07T09:53:13;7.05;;;5.50;;
58878;SDS011;44660;42.664;23.266;2023-04-07T09:55:39;8.82;;;5.80;;
58878;SDS011;44660;42.664;23.266;2023-04-07T09:58:06;9.13;;;5.88;;
58878;SDS011;44660;42.664;23.266;2023-04-07T10:00:33;9.85;;;6.53;;
58878;SDS011;44660;42.664;23.266;2023-04-07T10:02:59;11.30;;;6.43;;
58878;SDS011;44660;42.664;23.266;2023-04-07T10:05:25;10.98;;;6.40;;
58878;SDS011;44660;42.664;23.266;2023-04-07T10:07:51;10.95;;;6.65;;
58878;SDS011;44660;42.664;23.266;2023-04-07T10:10:18;8.32;;;5.57;;
58878;SDS011;44660;42.664;23.266;2023-04-07T10:12:44;7.97;;;5.50;;
58878;SDS011;44660;42.664;23.266;2023-04-07T10:15:11;10.85;;;5.75;;
58878;SDS011;44660;42.664;23.266;2023-04-07T10:17:43;7.60;;;5.25;;
58878;SDS011;44660;42.664;23.266;2023-04-07T10:20:12;6.95;;;5.35;;
58878;SDS011;44660;42.664;23.266;2023-04-07T10:22:39;8.57;;;5.90;;
58878;SDS011;44660;42.664;23.266;2023-04-07T10:25:07;9.32;;;6.45;;
58878;SDS011;44660;42.664;23.266;2023-04-07T10:27:37;8.15;;;5.30;;
58878;SDS011;44660;42.664;23.266;2023-04-07T10:30:14;14.57;;;5.57;;
58878;SDS011;44660;42.664;23.266;2023-04-07T10:32:45;13.10;;;5.05;;
58878;SDS011;44660;42.664;23.266;2023-04-07T10:35:14;8.05;;;5.22;;
58878;SDS011;44660;42.664;23.266;2023-04-07T10:37:42;6.28;;;5.05;;
58878;SDS011;44660;42.664;23.266;2023-04-07T10:40:32;9.40;;;5.78;;
58878;SDS011;44660;42.664;23.266;2023-04-07T10:42:58;9.13;;;5.45;;
58878;SDS011;44660;42.664;23.266;2023-04-07T10:45:50;8.25;;;5.95;;
58878;SDS011;44660;42.664;23.266;2023-04-07T10:48:17;8.98;;;5.65;;
58878;SDS011;44660;42.664;23.266;2023-04-07T10:50:44;8.07;;;5.57;;
58878;SDS011;44660;42.664;23.266;2023-04-07T10:53:11;8.13;;;5.85;;
58878;SDS011;44660;42.664;23.266;2023-04-07T10:58:16;11.57;;;5.80;;
58878;SDS011;44660;42.664;23.266;2023-04-07T11:03:52;7.80;;;5.47;;
58878;SDS011;44660;42.664;23.266;2023-04-07T11:06:20;9.50;;;6.40;;
58878;SDS011;44660;42.664;23.266;2023-04-07T11:08:47;6.97;;;5.85;;
58878;SDS011;44660;42.664;23.266;2023-04-07T11:11:13;7.75;;;5.85;;
58878;SDS011;44660;42.664;23.266;2023-04-07T11:13:41;9.75;;;5.57;;
58878;SDS011;44660;42.664;23.266;2023-04-07T11:16:07;9.40;;;6.10;;
58878;SDS011;44660;42.664;23.266;2023-04-07T11:18:33;10.13;;;5.90;;
58878;SDS011;44660;42.664;23.266;2023-04-07T11:20:59;10.93;;;5.95;;
58878;SDS011;44660;42.664;23.266;2023-04-07T11:23:25;8.23;;;5.93;;
58878;SDS011;44660;42.664;23.266;2023-04-07T11:25:52;10.30;;;6.18;;
58878;SDS011;44660;42.664;23.266;2023-04-07T11:28:25;9.90;;;6.63;;
58878;SDS011;44660;42.664;23.266;2023-04-07T11:30:52;9.77;;;6.28;;
58878;SDS011;44660;42.664;23.266;2023-04-07T11:33:19;8.10;;;5.60;;
58878;SDS011;44660;42.664;23.266;2023-04-07T11:35:50;8.85;;;6.05;;
58878;SDS011;44660;42.664;23.266;2023-04-07T11:38:20;8.38;;;6.18;;
58878;SDS011;44660;42.664;23.266;2023-04-07T11:40:47;8.98;;;6.10;;
58878;SDS011;44660;42.664;23.266;2023-04-07T11:43:20;8.07;;;5.60;;
58878;SDS011;44660;42.664;23.266;2023-04-07T11:48:34;16.52;;;8.60;;
58878;SDS011;44660;42.664;23.266;2023-04-07T11:51:01;11.80;;;7.28;;
58878;SDS011;44660;42.664;23.266;2023-04-07T11:53:35;16.02;;;7.85;;
58878;SDS011;44660;42.664;23.266;2023-04-07T11:56:08;14.90;;;6.97;;
58878;SDS011;44660;42.664;23.266;2023-04-07T11:58:36;11.43;;;7.00;;
58878;SDS011;44660;42.664;23.266;2023-04-07T12:01:03;14.20;;;7.47;;
58878;SDS011;44660;42.664;23.266;2023-04-07T12:03:33;14.88;;;8.05;;
58878;SDS011;44660;42.664;23.266;2023-04-07T12:06:04;12.15;;;7.53;;
58878;SDS011;44660;42.664;23.266;2023-04-07T12:08:36;10.97;;;7.00;;
58878;SDS011;44660;42.664;23.266;2023-04-07T12:11:05;10.18;;;6.78;;
58878;SDS011;44660;42.664;23.266;2023-04-07T12:13:32;9.63;;;6.55;;
58878;SDS011;44660;42.664;23.266;2023-04-07T12:15:58;9.38;;;7.22;;
58878;SDS011;44660;42.664;23.266;2023-04-07T12:18:23;8.10;;;6.15;;
58878;SDS011;44660;42.664;23.266;2023-04-07T12:20:49;9.80;;;6.57;;
58878;SDS011;44660;42.664;23.266;2023-04-07T12:23:15;9.98;;;6.53;;
58878;SDS011;44660;42.664;23.266;2023-04-07T12:25:41;14.95;;;6.70;;
58878;SDS011;44660;42.664;23.266;2023-04-07T12:28:06;8.82;;;6.60;;
58878;SDS011;44660;42.664;23.266;2023-04-07T12:30:32;11.32;;;7.00;;
58878;SDS011;44660;42.664;23.266;2023-04-07T12:32:57;10.40;;;7.28;;
58878;SDS011;44660;42.664;23.266;2023-04-07T12:35:23;9.88;;;6.78;;
58878;SDS011;44660;42.664;23.266;2023-04-07T12:37:48;21.30;;;10.38;;
58878;SDS011;44660;42.664;23.266;2023-04-07T12:40:15;11.02;;;7.43;;
58878;SDS011;44660;42.664;23.266;2023-04-07T12:42:42;12.45;;;6.43;;
58878;SDS011;44660;42.664;23.266;2023-04-07T12:45:07;9.63;;;6.40;;
58878;SDS011;44660;42.664;23.266;2023-04-07T12:47:33;12.55;;;7.32;;
58878;SDS011;44660;42.664;23.266;2023-04-07T12:49:58;11.18;;;7.13;;
58878;SDS011;44660;42.664;23.266;2023-04-07T12:52:24;9.82;;;6.22;;
58878;SDS011;44660;42.664;23.266;2023-04-07T12:54:51;10.07;;;6.35;;
58878;SDS011;44660;42.664;23.266;2023-04-07T12:57:17;11.48;;;6.50;;
58878;SDS011;44660;42.664;23.266;2023-04-07T12:59:43;10.00;;;6.55;;
58878;SDS011;44660;42.664;23.266;2023-04-07T13:02:09;8.68;;;6.75;;
58878;SDS011;44660;42.664;23.266;2023-04-07T13:04:35;9.95;;;6.90;;
58878;SDS011;44660;42.664;23.266;2023-04-07T13:07:04;8.38;;;6.28;;
58878;SDS011;44660;42.664;23.266;2023-04-07T13:09:30;10.38;;;6.70;;
58878;SDS011;44660;42.664;23.266;2023-04-07T13:11:55;9.38;;;6.50;;
58878;SDS011;44660;42.664;23.266;2023-04-07T13:14:22;9.82;;;6.55;;
58878;SDS011;44660;42.664;23.266;2023-04-07T13:16:47;10.27;;;6.82;;
58878;SDS011;44660;42.664;23.266;2023-04-07T13:19:13;11.25;;;7.10;;
58878;SDS011;44660;42.664;23.266;2023-04-07T13:21:38;11.63;;;6.80;;
58878;SDS011;44660;42.664;23.266;2023-04-07T13:24:04;11.50;;;7.22;;
58878;SDS011;44660;42.664;23.266;2023-04-07T13:26:30;10.60;;;6.97;;
58878;SDS011;44660;42.664;23.266;2023-04-07T13:28:55;9.80;;;6.93;;
58878;SDS011;44660;42.664;23.266;2023-04-07T13:31:21;11.10;;;7.07;;
58878;SDS011;44660;42.664;23.266;2023-04-07T13:33:47;9.95;;;6.90;;
58878;SDS011;44660;42.664;23.266;2023-04-07T13:36:13;13.68;;;6.97;;
58878;SDS011;44660;42.664;23.266;2023-04-07T13:38:38;13.20;;;7.15;;
58878;SDS011;44660;42.664;23.266;2023-04-07T13:41:06;9.98;;;7.10;;
58878;SDS011;44660;42.664;23.266;2023-04-07T13:43:31;13.10;;;7.20;;
58878;SDS011;44660;42.664;23.266;2023-04-07T13:45:57;11.70;;;7.40;;
58878;SDS011;44660;42.664;23.266;2023-04-07T13:48:22;11.13;;;6.88;;
58878;SDS011;44660;42.664;23.266;2023-04-07T13:50:48;8.52;;;6.80;;
58878;SDS011;44660;42.664;23.266;2023-04-07T13:53:13;16.27;;;7.05;;
58878;SDS011;44660;42.664;23.266;2023-04-07T13:55:39;14.30;;;7.63;;
58878;SDS011;44660;42.664;23.266;2023-04-07T13:58:05;10.35;;;6.80;;
58878;SDS011;44660;42.664;23.266;2023-04-07T14:00:31;19.67;;;7.45;;
58878;SDS011;44660;42.664;23.266;2023-04-07T14:02:56;12.95;;;9.45;;
58878;SDS011;44660;42.664;23.266;2023-04-07T14:05:22;11.88;;;8.40;;
58878;SDS011;44660;42.664;23.266;2023-04-07T14:07:48;13.98;;;7.75;;
58878;SDS011;44660;42.664;23.266;2023-04-07T14:10:15;9.95;;;6.70;;
58878;SDS011;44660;42.664;23.266;2023-04-07T14:12:40;10.55;;;7.28;;
58878;SDS011;44660;42.664;23.266;2023-04-07T14:15:06;10.70;;;7.80;;
58878;SDS011;44660;42.664;23.266;2023-04-07T14:17:32;15.20;;;8.30;;
58878;SDS011;44660;42.664;23.266;2023-04-07T14:19:58;14.02;;;7.65;;
58878;SDS011;44660;42.664;23.266;2023-04-07T14:22:23;12.82;;;8.50;;
58878;SDS011;44660;42.664;23.266;2023-04-07T14:24:49;17.15;;;9.82;;
58878;SDS011;44660;42.664;23.266;2023-04-07T14:27:14;16.63;;;8.43;;
58878;SDS011;44660;42.664;23.266;2023-04-07T14:29:45;10.93;;;7.70;;
58878;SDS011;44660;42.664;23.266;2023-04-07T14:32:11;17.85;;;11.50;;
58878;SDS011;44660;42.664;23.266;2023-04-07T14:34:36;44.67;;;25.08;;
58878;SDS011;44660;42.664;23.266;2023-04-07T14:37:02;19.80;;;11.73;;
58878;SDS011;44660;42.664;23.266;2023-04-07T14:39:27;14.35;;;8.48;;
58878;SDS011;44660;42.664;23.266;2023-04-07T14:41:53;13.18;;;8.88;;